Last 24 Hours

Thomas Mountain

10 Minute Data | America/Los_Angeles
as of 1/30/23 10:51 AM PST
Date & Time Temp (°F) Dew Pt (°F) RH (%) Wind Spd (mph) Wind Dir (°) Wind Gust (mph) Wind Gst Dir (°) Daily Max Temp (°F) Daily Min Temp (°F)
1/30/23 - 1050 33.0 33.0 100 9.9 E | 79 14.7 ENE | 67 33.5 28.4
1/30/23 - 1040 33.0 32.9 100 10.1 ENE | 76 14.5 ENE | 66 33.5 28.4
1/30/23 - 1030 32.9 32.8 100 8.6 ENE | 75 13.0 ENE | 78 33.5 28.4
1/30/23 - 1020 32.7 32.7 100 10.0 ENE | 69 15.0 NE | 55 32.9 28.4
1/30/23 - 1010 32.6 32.6 100 8.5 ENE | 78 12.8 ENE | 78 32.9 28.4
1/30/23 - 1000 32.2 32.2 100 7.2 E | 82 11.8 ENE | 78 32.5 28.4
1/30/23 - 0950 32.0 31.9 100 7.2 ENE | 78 12.4 ENE | 76 32.1 28.4
1/30/23 - 0940 31.8 31.7 100 5.7 ENE | 73 8.8 NE | 43 31.9 28.4
1/30/23 - 0930 31.3 31.2 100 6.7 ENE | 78 10.7 E | 87 31.5 28.4
1/30/23 - 0920 31.0 31.0 100 6.6 E | 80 9.9 E | 97 31.1 28.4
1/30/23 - 0910 30.6 30.6 100 6.2 E | 79 10.8 ENE | 77 30.9 28.4
1/30/23 - 0900 30.4 30.4 100 7.3 E | 82 11.8 ENE | 74 30.6 28.4
1/30/23 - 0850 30.5 30.5 100 7.0 E | 84 11.3 ENE | 66 30.6 28.4
1/30/23 - 0840 30.3 30.3 100 5.7 ENE | 71 9.5 E | 91 30.5 28.4
1/30/23 - 0830 30.2 30.1 100 5.4 ENE | 57 7.2 ENE | 57 30.3 28.4
1/30/23 - 0820 30.0 29.9 100 6.7 ENE | 57 8.7 ENE | 57 30.3 28.4
1/30/23 - 0810 29.9 29.9 100 7.1 ENE | 63 9.0 ENE | 70 30.3 28.4
1/30/23 - 0800 29.7 29.7 100 8.2 ENE | 68 10.7 ENE | 73 30.3 28.4
1/30/23 - 0750 29.8 29.8 100 8.5 ENE | 60 11.5 ENE | 65 30.3 28.4
1/30/23 - 0740 29.6 29.6 100 0.5 NNW | 330 2.6 NNW | 330 30.3 28.4
1/30/23 - 0730 29.2 29.2 100 0.5 NNW | 329 2.4 NNW | 329 30.3 28.4
1/30/23 - 0720 29.2 29.2 100 0.4 NNW | 329 2.0 NNW | 329 30.3 28.4
1/30/23 - 0710 29.1 29.1 100 0.3 NNW | 329 1.0 NNW | 329 30.3 28.4
1/30/23 - 0700 29.0 29.0 100 0.1 NNW | 329 0.9 NNW | 329 30.3 28.4
1/30/23 - 0650 28.9 28.9 100 0.0 N | 0 0.0 NNW | 329 30.3 28.4
1/30/23 - 0640 28.9 28.9 100 0.5 NNW | 329 1.4 NNW | 329 30.3 28.4
1/30/23 - 0630 29.0 29.0 100 1.1 NNW | 329 2.6 NNW | 329 30.3 28.4
1/30/23 - 0620 29.1 29.1 100 0.5 NNW | 329 1.4 NNW | 329 30.3 28.4
1/30/23 - 0610 28.9 28.9 100 0.1 NNW | 329 0.8 NNW | 329 30.3 28.4
1/30/23 - 0600 28.7 28.7 100 1.6 NNW | 329 3.2 NNW | 329 30.3 28.4
1/30/23 - 0550 28.6 28.6 100 1.9 NNW | 329 2.9 NNW | 329 30.3 28.4
1/30/23 - 0540 28.5 28.5 100 2.7 NNW | 329 4.3 NNW | 329 30.3 28.4
1/30/23 - 0530 28.5 28.5 100 3.1 NNW | 329 5.6 NNW | 329 30.3 28.4
1/30/23 - 0520 28.6 28.6 100 2.3 NNW | 329 4.6 NNW | 329 30.3 28.5
1/30/23 - 0510 28.6 28.6 100 2.3 NNW | 329 4.0 NNW | 329 30.3 28.6
1/30/23 - 0500 28.7 28.7 100 2.3 NNW | 329 3.8 NNW | 329 30.3 28.6
1/30/23 - 0450 28.8 28.7 100 2.4 NNW | 329 3.9 NNW | 329 30.3 28.6
1/30/23 - 0440 28.8 28.7 100 2.1 NNW | 329 3.7 NNW | 329 30.3 28.6
1/30/23 - 0430 28.8 28.7 100 0.9 NNW | 329 2.0 NNW | 329 30.3 28.6
1/30/23 - 0420 28.8 28.7 100 1.4 NNW | 329 2.8 NNW | 329 30.3 28.6
1/30/23 - 0410 28.8 28.8 100 0.7 NNW | 329 1.8 NNW | 329 30.3 28.6
1/30/23 - 0400 28.7 28.7 100 0.3 NNW | 329 0.9 NNW | 329 30.3 28.6
1/30/23 - 0350 28.8 28.8 100 0.3 NNW | 329 0.9 NNW | 329 30.3 28.8
1/30/23 - 0340 29.0 29.0 100 0.6 NW | 305 1.7 WNW | 302 30.3 28.8
1/30/23 - 0330 29.0 29.0 100 1.8 W | 276 2.9 W | 279 30.3 28.8
1/30/23 - 0320 29.0 29.0 100 2.6 W | 263 3.9 WSW | 253 30.3 28.8
1/30/23 - 0310 29.1 29.1 100 4.8 WSW | 249 7.7 WSW | 256 30.3 28.8
1/30/23 - 0300 29.1 29.1 100 5.7 WSW | 238 8.0 WSW | 240 30.3 28.8
1/30/23 - 0250 29.0 29.0 100 6.6 WSW | 248 10.3 WSW | 252 30.3 28.8
1/30/23 - 0240 28.9 28.9 100 8.3 WSW | 251 11.5 SW | 236 30.3 28.8
1/30/23 - 0230 28.8 28.8 100 8.0 WSW | 257 12.2 W | 263 30.3 28.8
1/30/23 - 0220 29.1 29.0 100 8.6 WSW | 257 12.6 WSW | 255 30.3 28.9
1/30/23 - 0210 29.3 29.3 100 8.7 WSW | 253 12.4 W | 264 30.3 29.2
1/30/23 - 0200 29.5 29.4 100 8.6 WSW | 255 12.6 WSW | 251 30.3 29.5
1/30/23 - 0150 29.6 29.6 100 10.8 WSW | 253 15.6 WSW | 258 30.3 29.5
1/30/23 - 0140 29.9 29.8 100 9.9 WSW | 245 15.6 W | 266 30.3 29.5
1/30/23 - 0130 29.9 29.9 100 11.3 WSW | 243 15.0 WSW | 242 30.3 29.5
1/30/23 - 0120 29.9 29.9 100 9.4 WSW | 246 12.9 WSW | 250 30.3 29.5
1/30/23 - 0110 30.0 29.9 100 9.4 WSW | 243 12.9 WSW | 239 30.3 29.5
1/30/23 - 0100 29.9 29.9 100 9.0 SW | 232 14.4 SW | 234 30.3 29.5
1/30/23 - 0050 29.6 29.6 100 9.7 SW | 234 14.8 SW | 230 30.3 29.5
1/30/23 - 0040 29.5 29.4 100 8.3 SW | 230 13.5 WSW | 239 30.3 29.5
1/30/23 - 0030 29.9 29.9 100 8.5 SW | 225 12.7 WSW | 258 30.3 29.5
1/30/23 - 0020 30.2 30.2 100 9.6 W | 277 14.8 W | 279 30.3 29.9
1/30/23 - 0010 30.0 30.0 100 8.1 WSW | 257 13.4 W | 259 30.2 29.9
1/30/23 - 0000 29.8 29.7 100 9.4 WSW | 255 14.3 WSW | 248 34.4 29.7
1/29/23 - 2350 29.8 29.8 100 8.8 WSW | 252 15.3 WSW | 258 34.4 29.7
1/29/23 - 2340 30.0 30.0 100 7.6 W | 262 13.4 WSW | 255 34.4 29.7
1/29/23 - 2330 30.2 30.2 100 8.8 W | 270 13.9 W | 278 34.4 29.7
1/29/23 - 2320 30.2 30.2 100 9.5 WSW | 257 15.3 WSW | 250 34.4 29.7
1/29/23 - 2310 30.4 30.4 100 12.5 WSW | 246 19.6 W | 263 34.4 29.7
1/29/23 - 2300 30.4 30.4 100 12.0 WSW | 240 17.0 W | 262 34.4 29.7
1/29/23 - 2250 30.4 30.4 100 12.8 WSW | 242 18.0 WSW | 249 34.4 29.7
1/29/23 - 2240 30.5 30.5 100 14.1 WSW | 254 20.1 W | 261 34.4 29.7
1/29/23 - 2230 30.6 30.6 100 13.6 WSW | 257 21.4 WSW | 255 34.4 29.7
1/29/23 - 2220 30.6 30.6 100 10.7 WSW | 255 17.5 W | 265 34.4 29.7
1/29/23 - 2210 30.8 30.7 100 9.3 W | 270 16.6 WNW | 282 34.4 29.7
1/29/23 - 2200 30.8 30.8 100 9.4 W | 268 15.9 W | 279 34.4 29.7
1/29/23 - 2150 30.8 30.8 100 10.6 W | 260 16.3 WSW | 258 34.4 29.7
1/29/23 - 2140 30.7 30.7 100 9.2 W | 266 16.2 W | 260 34.4 29.7
1/29/23 - 2130 30.6 30.6 100 8.4 WNW | 285 13.5 WNW | 299 34.4 29.7
1/29/23 - 2120 30.6 30.5 100 7.9 W | 275 14.4 WNW | 286 34.4 29.7
1/29/23 - 2110 30.4 30.4 100 7.6 W | 272 12.9 WNW | 283 34.4 29.7
1/29/23 - 2100 30.4 30.4 100 8.7 W | 267 12.9 WSW | 258 34.4 29.7
1/29/23 - 2050 30.4 30.4 100 11.1 WSW | 258 18.1 W | 273 34.4 29.7
1/29/23 - 2040 30.4 30.4 100 10.3 WSW | 255 15.3 W | 262 34.4 29.7
1/29/23 - 2030 30.2 30.2 100 10.4 WSW | 256 15.3 W | 260 34.4 29.7
1/29/23 - 2020 30.1 30.0 100 9.2 WSW | 257 15.9 WSW | 256 34.4 29.7
1/29/23 - 2010 30.0 29.9 100 8.6 WSW | 258 17.5 W | 262 34.4 29.7
1/29/23 - 2000 29.9 29.8 100 7.3 W | 265 13.8 W | 260 34.4 29.7
1/29/23 - 1950 29.8 29.8 100 8.0 W | 263 14.8 W | 273 34.4 29.7
1/29/23 - 1940 29.8 29.7 100 11.2 WSW | 258 18.1 W | 280 34.4 29.7
1/29/23 - 1930 30.1 30.1 100 13.9 WSW | 257 22.9 W | 266 34.4 29.8
1/29/23 - 1920 30.6 30.6 100 15.7 WSW | 248 23.4 WSW | 247 34.4 30.4
1/29/23 - 1910 30.9 30.9 100 19.2 WSW | 247 26.7 WSW | 247 34.4 30.8
1/29/23 - 1900 31.4 31.3 100 17.2 WSW | 254 26.1 WSW | 248 34.4 31.2
1/29/23 - 1850 31.6 31.5 100 16.3 WSW | 249 23.8 WSW | 257 34.4 31.2
1/29/23 - 1840 31.7 31.7 100 16.8 WSW | 246 24.2 WSW | 240 34.4 31.2
1/29/23 - 1830 31.7 31.7 100 17.7 WSW | 247 26.0 WSW | 255 34.4 31.2
1/29/23 - 1820 31.8 31.7 100 19.3 WSW | 248 27.8 WSW | 251 34.4 31.2
1/29/23 - 1810 31.8 31.8 100 20.7 WSW | 248 31.9 WSW | 252 34.4 31.2
1/29/23 - 1800 31.8 31.8 100 20.3 WSW | 243 30.1 WSW | 255 34.4 31.2
1/29/23 - 1750 31.8 31.8 100 21.5 WSW | 247 31.7 W | 259 34.4 31.2
1/29/23 - 1740 31.7 31.7 100 19.9 WSW | 249 30.0 WSW | 248 34.4 31.2
1/29/23 - 1730 31.7 31.6 100 13.6 WSW | 250 19.8 WSW | 245 34.4 31.2
1/29/23 - 1720 31.8 31.8 100 15.0 WSW | 249 22.7 W | 268 34.4 31.2
1/29/23 - 1710 32.1 32.1 100 16.6 WSW | 248 23.7 W | 262 34.4 31.2
1/29/23 - 1700 32.3 32.3 100 18.1 WSW | 248 25.4 WSW | 251 34.4 31.2
1/29/23 - 1650 32.5 32.5 100 18.8 WSW | 247 29.7 W | 264 34.4 31.2
1/29/23 - 1640 32.4 32.4 100 20.8 WSW | 246 28.6 WSW | 240 34.4 31.2
1/29/23 - 1630 32.1 32.0 100 18.2 WSW | 247 27.2 W | 263 34.4 31.2
1/29/23 - 1620 32.0 32.0 100 19.4 WSW | 248 27.8 WSW | 246 34.4 31.2
1/29/23 - 1610 32.6 32.5 100 21.4 WSW | 245 33.7 WSW | 237 34.4 31.2
1/29/23 - 1600 33.0 33.0 100 19.0 WSW | 248 26.7 SW | 232 34.4 31.2
1/29/23 - 1550 33.0 33.0 100 21.4 WSW | 244 30.0 W | 259 34.4 31.2
1/29/23 - 1540 33.2 33.2 100 23.3 WSW | 245 30.9 WSW | 244 34.4 31.2
1/29/23 - 1530 33.2 33.2 100 22.2 WSW | 246 33.2 WSW | 239 34.4 31.2
1/29/23 - 1520 32.8 32.8 100 23.8 WSW | 246 33.2 WSW | 254 34.4 31.2
1/29/23 - 1510 33.7 33.7 100 24.0 WSW | 246 35.1 WSW | 238 34.4 31.2
1/29/23 - 1500 34.3 34.2 100 20.4 WSW | 244 31.7 WSW | 240 34.4 31.2
1/29/23 - 1450 34.1 34.0 100 21.1 WSW | 247 32.3 WSW | 247 34.3 31.2
1/29/23 - 1440 33.9 33.9 100 22.0 WSW | 246 30.8 WSW | 246 34.3 31.2
1/29/23 - 1430 33.8 33.7 100 22.2 WSW | 242 30.2 W | 263 34.3 31.2
1/29/23 - 1420 33.6 33.6 100 21.6 WSW | 246 32.3 WSW | 249 34.3 31.2
1/29/23 - 1410 33.5 33.4 100 21.3 WSW | 244 29.9 WSW | 244 34.3 31.2
1/29/23 - 1400 33.5 33.5 100 22.6 WSW | 245 30.7 W | 273 34.3 31.2
1/29/23 - 1350 33.7 33.7 100 19.3 WSW | 246 27.2 WSW | 250 34.3 31.2
1/29/23 - 1340 33.5 33.5 100 19.2 WSW | 246 27.0 WSW | 247 34.3 31.2
1/29/23 - 1330 33.4 33.4 100 17.6 WSW | 247 27.3 WSW | 249 34.3 31.2
1/29/23 - 1320 33.4 33.4 100 16.2 WSW | 248 24.3 WSW | 256 34.3 31.2
1/29/23 - 1310 33.4 33.4 100 16.1 WSW | 249 23.2 WSW | 251 34.3 31.2
1/29/23 - 1300 33.3 33.3 100 14.3 WSW | 251 21.6 WSW | 239 34.3 31.2
1/29/23 - 1250 33.3 33.2 100 14.3 WSW | 255 21.2 W | 259 34.3 31.2
1/29/23 - 1240 33.2 33.2 100 15.3 WSW | 253 22.6 WSW | 243 34.3 31.2
1/29/23 - 1230 33.1 33.1 100 15.7 WSW | 250 23.0 WSW | 255 34.3 31.2
1/29/23 - 1220 33.2 33.2 100 17.7 WSW | 255 28.2 WSW | 253 34.3 31.2
1/29/23 - 1210 33.2 33.1 100 18.4 WSW | 253 24.9 WSW | 252 34.3 31.2
1/29/23 - 1200 33.2 33.2 100 16.0 WSW | 253 23.8 W | 273 34.3 31.2
1/29/23 - 1150 33.1 33.1 100 17.9 WSW | 252 28.1 W | 259 34.3 31.2
1/29/23 - 1140 33.1 33.0 100 18.1 WSW | 251 27.0 WSW | 255 34.3 31.2
1/29/23 - 1130 33.3 33.2 100 19.0 WSW | 249 27.3 W | 267 34.3 31.2
1/29/23 - 1120 33.2 33.1 99 22.2 WSW | 245 29.3 WSW | 244 34.3 31.2
1/29/23 - 1110 33.4 33.2 100 21.1 WSW | 250 29.4 WSW | 251 34.3 31.2
1/29/23 - 1100 33.6 33.5 100 18.0 WSW | 254 28.6 W | 270 34.3 31.2
1/29/23 - 1050 33.4 33.3 100 18.6 WSW | 254 29.5 W | 260 34.3 31.2
Max 34.3 34.2 100 24.0 - 35.1 - 34.4 31.2
Avg 31.0 30.9 100 11.1 - 16.7 - - -
Min 28.5 28.5 99 0.0 - 0.0 - 30.2 28.4